WetterOnline ( https://www.wetteronline.de )

Wetter aktuell Norderney

Aktuelles Wetter: Norderney (16m)

6-stündlich | Neueste Meldungen
Ortszeit Temperatur Wetter
Di, 31.01. 13:00 6.8° C bedeckt
Di, 31.01. 7:00 5.2° C leichter Regen
Di, 31.01. 1:00 5.8° C wolkig
Mo, 30.01. 19:00 6.2° C leicht bewölkt
Mo, 30.01. 13:00 6.2° C wolkig
Mo, 30.01. 7:00 6.3° C Dunst
Mo, 30.01. 1:00 6.0° C leichter Regen
So, 29.01. 19:00 5.1° C bedeckt
Ortszeit Temperatur Wetter
Di, 31.01. 15:00 7.4° C wolkig
Di, 31.01. 14:50 7.4° C wolkig
Di, 31.01. 14:40 7.3° C Dunst
Di, 31.01. 14:30 6.9° C bewölkt
Di, 31.01. 14:20 6.9° C Dunst
Di, 31.01. 14:10 6.8° C Dunst
Di, 31.01. 14:00 6.9° C bedeckt
Di, 31.01. 13:30 6.7° C bedeckt
Di, 31.01. 13:00 6.8° C bedeckt
Di, 31.01. 12:30 6.6° C bedeckt
Di, 31.01. 12:00 6.4° C bedeckt
Ortszeit Relative Feuchte Sichtweite
Di, 31.01. 13:00 90% 5.0 km
Di, 31.01. 7:00 92% 13 km
Di, 31.01. 1:00 80% 13 km
Mo, 30.01. 19:00 78% 9 km
Mo, 30.01. 13:00 78% 9 km
Mo, 30.01. 7:00 79% 7 km
Mo, 30.01. 1:00 89% 17 km
So, 29.01. 19:00 93% 10 km
Ortszeit Relative Feuchte Sichtweite
Di, 31.01. 15:00 85% 9 km
Di, 31.01. 14:50 85% -
Di, 31.01. 14:40 87% -
Di, 31.01. 14:30 90% 6 km
Di, 31.01. 14:20 90% -
Di, 31.01. 14:10 90% -
Di, 31.01. 14:00 90% 6 km
Di, 31.01. 13:30 90% 5.0 km
Di, 31.01. 13:00 90% 5.0 km
Di, 31.01. 12:30 90% 8 km
Di, 31.01. 12:00 91% 7 km
Ortszeit Niederschlagsmenge Niederschlagsart
Di, 31.01. 13:00 0.2 l/m2 in 6 Std. Regen
Di, 31.01. 7:00 0.1 l/m2 in 12 Std. Regen
Di, 31.01. 1:00 0.1 l/m2 in 6 Std. Sprühregen, Niederschlag
Mo, 30.01. 19:00 0.3 l/m2 in 12 Std. Regen
Mo, 30.01. 13:00 0.3 l/m2 in 6 Std. Regen
Mo, 30.01. 7:00 2 l/m2 in 12 Std. Regen
Mo, 30.01. 1:00 0.1 l/m2 in 6 Std. Regen
So, 29.01. 19:00 0.4 l/m2 in 12 Std. Regen
Ortszeit Niederschlagsmenge Niederschlagsart
Di, 31.01. 15:00 0.0 l/m2 in 1 Std. -
Di, 31.01. 14:50 keine Meldung -
Di, 31.01. 14:40 keine Meldung -
Di, 31.01. 14:30 0.0 l/m2 in 30 Min -
Di, 31.01. 14:20 keine Meldung -
Di, 31.01. 14:10 keine Meldung -
Di, 31.01. 14:00 0.0 l/m2 in 1 Std. -
Di, 31.01. 13:30 0.0 l/m2 in 30 Min -
Di, 31.01. 13:00 0.0 l/m2 in 1 Std. Regen
Di, 31.01. 12:30 0.0 l/m2 in 30 Min -
Di, 31.01. 12:00 0.0 l/m2 in 1 Std. -
Ortszeit Stärke Spitze Richtung
km/h Bft. km/h Grad Sektor
Di, 31.01. 13:00 33 5 54 250° W
Di, 31.01. 7:00 25 4 65 220° SW
Di, 31.01. 1:00 39 6 78 300° NW
Mo, 30.01. 19:00 43 6 79 310° NW
Mo, 30.01. 13:00 56 7 83 300° NW
Mo, 30.01. 7:00 44 6 69 280° W
Mo, 30.01. 1:00 32 5 50 230° SW
So, 29.01. 19:00 31 5 46 220° SW
Ortszeit Stärke Spitze Richtung
km/h Bft. km/h Grad Sektor
Di, 31.01. 15:00 40 6 58 270° W
Di, 31.01. 14:50 40 6 - 270° W
Di, 31.01. 14:40 37 5 - 260° W
Di, 31.01. 14:30 36 5 50 260° W
Di, 31.01. 14:20 36 5 - 260° W
Di, 31.01. 14:10 32 5 - 250° W
Di, 31.01. 14:00 33 5 52 250° W
Di, 31.01. 13:30 31 5 48 250° W
Di, 31.01. 13:00 33 5 54 250° W
Di, 31.01. 12:30 36 5 54 250° W
Di, 31.01. 12:00 33 5 52 250° W
Ortszeit Untergrenze Bedeckung Gattung
total tief tief mittel hoch
Di, 31.01. 13:00 480 m 8/8 8/8 - - -
Di, 31.01. 7:00 240 m 7/8 7/8 - - -
Di, 31.01. 1:00 690 m 6/8 6/8 - - -
Mo, 30.01. 19:00 750 m 3/8 3/8 - - -
Mo, 30.01. 13:00 690 m 5/8 5/8 - - -
Mo, 30.01. 7:00 780 m 7/8 7/8 - - -
Mo, 30.01. 1:00 390 m 8/8 8/8 - - -
So, 29.01. 19:00 360 m 8/8 8/8 - - -
Ortszeit Bedeckungsgrad in Achtel und Wolkenuntergrenze
Di, 31.01. 15:00 2(540m) 3(750m) 6(1800m)
Di, 31.01. 14:50 2(540m) 3(750m) 6(1800m)
Di, 31.01. 14:40 6
Di, 31.01. 14:30 4(390m) 6(510m) 7(1800m)
Di, 31.01. 14:20 4(390m) 6(510m) 7(1800m)
Di, 31.01. 14:10 7
Di, 31.01. 14:00 6(390m) 8(1080m) 8(1380m)
Di, 31.01. 13:30 5(330m) 8(1410m)
Di, 31.01. 13:00 2(480m) 6(1290m) 8(1500m)
Di, 31.01. 12:30 7(390m) 8(630m) 8(1050m)
Di, 31.01. 12:00 8(390m)
Ortszeit Luftdruck NN (hPa) Tendenz (hPa in 3 Std.)
Di, 31.01. 13:00 1013 - 1,3
Di, 31.01. 7:00 1017 - 1,8
Di, 31.01. 1:00 1019 + 0,4
Mo, 30.01. 19:00 1017 + 3,4
Mo, 30.01. 13:00 1009 + 1,3
Mo, 30.01. 7:00 1008 0,0
Mo, 30.01. 1:00 1010 - 3,2
So, 29.01. 19:00 1016 - 2,7
Ortszeit Luftdruck NN (hPa) Tendenz (hPa in 3 Std.)
Di, 31.01. 15:00 1012 - 1,1
Di, 31.01. 14:50 1012 keine Meldung
Di, 31.01. 14:40 1012 keine Meldung
Di, 31.01. 14:30 1012 - 1,3
Di, 31.01. 14:20 1012 keine Meldung
Di, 31.01. 14:10 1012 keine Meldung
Di, 31.01. 14:00 1012 - 1,5
Di, 31.01. 13:30 1013 - 1,1
Di, 31.01. 13:00 1013 - 1,3
Di, 31.01. 12:30 1013 - 1,4
Di, 31.01. 12:00 1013 - 1,4
Ortszeit Schneehöhe (cm)
Di, 31.01. 13:00 0
Di, 31.01. 7:00 0
Di, 31.01. 1:00 0
Mo, 30.01. 19:00 0
Mo, 30.01. 13:00 0
Mo, 30.01. 7:00 0
Mo, 30.01. 1:00 0
So, 29.01. 19:00 0
Ortszeit Schneehöhe (cm)
Di, 31.01. 15:00 0
Di, 31.01. 14:50 0
Di, 31.01. 14:40 0
Di, 31.01. 14:30 0
Di, 31.01. 14:20 0
Di, 31.01. 14:10 0
Di, 31.01. 14:00 0
Di, 31.01. 13:30 0
Di, 31.01. 13:00 0
Di, 31.01. 12:30 0
Di, 31.01. 12:00 0
Link zu dieser Seite / Seite empfehlen

Das Wetter in ...